Time;durP1;ratioP1;P1;durP2;ratioP2;P2;SDS_P1;SDS_P2;PMS_P1;PMS_P2;Temp;Humidity;BMP_temperature;BMP_pressure;BME280_temperature;BME280_humidity;BME280_pressure;Samples;Min_cycle;Max_cycle;Signal;HPM_P1;HPM_P2
2023/12/17 00:01:30;;;;;;;11.18;5.40;;;;;;;;;;10349126;28;20235;-77
2023/12/17 00:06:34;;;;;;;9.00;6.03;;;;;;;;;;10344160;28;20274;-73
2023/12/17 00:11:41;;;;;;;8.02;6.18;;;;;;;;;;10345967;28;20231;-76
2023/12/17 00:16:42;;;;;;;9.05;5.80;;;;;;;;;;10332369;28;20720;-75
2023/12/17 00:21:43;;;;;;;7.78;6.00;;;;;;;;;;10346967;28;20222;-75
2023/12/17 00:26:44;;;;;;;7.93;6.10;;;;;;;;;;10339920;28;20231;-74
2023/12/17 00:31:45;;;;;;;6.80;5.70;;;;;;;;;;10333181;28;20633;-76
2023/12/17 00:36:46;;;;;;;10.07;5.88;;;;;;;;;;10337519;28;20235;-75
2023/12/17 00:41:47;;;;;;;8.68;6.13;;;;;;;;;;10344778;28;20224;-75
2023/12/17 00:46:48;;;;;;;6.88;5.82;;;;;;;;;;10338439;28;20705;-75
2023/12/17 00:51:49;;;;;;;7.40;6.05;;;;;;;;;;10344832;28;20287;-74
2023/12/17 00:56:50;;;;;;;9.60;5.82;;;;;;;;;;10363580;28;20942;-75
2023/12/17 01:01:51;;;;;;;7.78;5.13;;;;;;;;;;10345660;28;20231;-74
2023/12/17 01:06:52;;;;;;;6.30;5.75;;;;;;;;;;10342177;28;20220;-75
2023/12/17 01:11:54;;;;;;;5.88;5.13;;;;;;;;;;10340817;28;20266;-75
2023/12/17 01:16:55;;;;;;;8.80;5.20;;;;;;;;;;10346674;28;20766;-74
2023/12/17 01:21:57;;;;;;;5.63;4.97;;;;;;;;;;10338037;28;20319;-76
2023/12/17 01:26:59;;;;;;;5.88;4.75;;;;;;;;;;10343944;28;20224;-74
2023/12/17 01:32:00;;;;;;;5.93;5.32;;;;;;;;;;10341080;28;20212;-75
2023/12/17 01:37:01;;;;;;;6.10;5.03;;;;;;;;;;10325941;28;20204;-76
2023/12/17 01:42:02;;;;;;;6.45;4.90;;;;;;;;;;10327200;28;20925;-75
2023/12/17 01:47:03;;;;;;;7.35;5.15;;;;;;;;;;10338990;28;20235;-76
2023/12/17 01:52:04;;;;;;;6.50;4.82;;;;;;;;;;10332054;28;20215;-74
2023/12/17 01:57:06;;;;;;;5.10;4.63;;;;;;;;;;10338232;28;20754;-75
2023/12/17 02:02:08;;;;;;;9.90;5.07;;;;;;;;;;10343770;28;20231;-75
2023/12/17 02:07:09;;;;;;;5.72;5.00;;;;;;;;;;10338541;28;20223;-74
2023/12/17 02:12:24;;;;;;;6.18;5.03;;;;;;;;;;10340712;28;20802;-75
2023/12/17 02:17:28;;;;;;;5.72;4.65;;;;;;;;;;10344501;28;20216;-75
2023/12/17 02:22:30;;;;;;;7.47;5.18;;;;;;;;;;10341317;28;20216;-74
2023/12/17 02:27:31;;;;;;;6.70;4.85;;;;;;;;;;10340476;28;20593;-76
2023/12/17 02:32:32;;;;;;;5.68;4.80;;;;;;;;;;10344207;28;20239;-75
2023/12/17 02:37:33;;;;;;;6.65;5.30;;;;;;;;;;10359059;28;20223;-75
2023/12/17 02:42:34;;;;;;;5.90;4.68;;;;;;;;;;10348229;28;20216;-74
2023/12/17 02:47:35;;;;;;;5.90;5.30;;;;;;;;;;10332321;28;20232;-76
2023/12/17 02:52:36;;;;;;;9.20;5.82;;;;;;;;;;10310552;28;20226;-75
2023/12/17 02:57:37;;;;;;;7.68;5.65;;;;;;;;;;10333423;28;20265;-76
2023/12/17 03:02:38;;;;;;;8.02;5.68;;;;;;;;;;10320946;28;20224;-75
2023/12/17 03:07:39;;;;;;;6.63;5.97;;;;;;;;;;10342072;28;20630;-75
2023/12/17 03:12:40;;;;;;;8.25;5.30;;;;;;;;;;10340820;28;20219;-77
2023/12/17 03:17:41;;;;;;;7.35;6.30;;;;;;;;;;10349546;28;20244;-75
2023/12/17 03:22:42;;;;;;;7.47;6.05;;;;;;;;;;10341531;28;20219;-76
2023/12/17 03:27:43;;;;;;;6.43;5.05;;;;;;;;;;10338625;28;20224;-74
2023/12/17 03:32:45;;;;;;;7.00;5.22;;;;;;;;;;10346888;28;20220;-75
2023/12/17 03:37:46;;;;;;;5.22;4.72;;;;;;;;;;10348124;28;20223;-75
2023/12/17 03:42:47;;;;;;;6.50;4.82;;;;;;;;;;10346095;28;20219;-76
2023/12/17 03:47:48;;;;;;;5.15;4.63;;;;;;;;;;10342411;28;20828;-75
2023/12/17 03:52:49;;;;;;;7.50;5.30;;;;;;;;;;10343240;28;20772;-74
2023/12/17 03:57:50;;;;;;;6.30;5.03;;;;;;;;;;10340373;28;20212;-76
2023/12/17 04:02:51;;;;;;;7.95;5.32;;;;;;;;;;10346853;28;20216;-76
2023/12/17 04:07:53;;;;;;;6.20;4.60;;;;;;;;;;10345508;28;20215;-74
2023/12/17 04:12:54;;;;;;;5.75;5.05;;;;;;;;;;10343964;28;20216;-74
2023/12/17 04:17:55;;;;;;;7.80;4.68;;;;;;;;;;10352599;28;20776;-75
2023/12/17 04:22:56;;;;;;;6.07;4.63;;;;;;;;;;10324046;28;21080;-75
2023/12/17 04:27:57;;;;;;;5.85;4.88;;;;;;;;;;10342424;28;20251;-75
2023/12/17 04:32:58;;;;;;;4.25;3.85;;;;;;;;;;10351426;28;20636;-76
2023/12/17 04:37:59;;;;;;;4.70;4.20;;;;;;;;;;10341619;28;20212;-74
2023/12/17 04:43:00;;;;;;;4.75;4.32;;;;;;;;;;10339686;28;20231;-76
2023/12/17 04:48:01;;;;;;;4.72;4.22;;;;;;;;;;10344214;28;20227;-78
2023/12/17 04:53:02;;;;;;;5.45;3.55;;;;;;;;;;10327975;28;20212;-76
2023/12/17 04:58:03;;;;;;;3.60;3.30;;;;;;;;;;10343231;28;20875;-76
2023/12/17 05:03:05;;;;;;;3.88;3.55;;;;;;;;;;10322714;28;20728;-75
2023/12/17 05:08:06;;;;;;;3.63;3.42;;;;;;;;;;10326868;28;20220;-76
2023/12/17 05:13:08;;;;;;;4.65;2.92;;;;;;;;;;10334269;28;20358;-74
2023/12/17 05:18:09;;;;;;;3.60;3.25;;;;;;;;;;10335571;28;20211;-75
2023/12/17 05:23:11;;;;;;;3.60;3.25;;;;;;;;;;10337767;28;20208;-75
2023/12/17 05:28:12;;;;;;;3.35;2.90;;;;;;;;;;10343368;28;20220;-76
2023/12/17 05:33:13;;;;;;;3.65;3.33;;;;;;;;;;10343155;28;20219;-77
2023/12/17 05:38:16;;;;;;;3.17;2.97;;;;;;;;;;10341843;28;20215;-76
2023/12/17 05:43:17;;;;;;;2.30;2.20;;;;;;;;;;10346758;28;20749;-75
2023/12/17 05:48:18;;;;;;;3.25;2.95;;;;;;;;;;10343783;28;20223;-75
2023/12/17 05:53:19;;;;;;;1.83;1.73;;;;;;;;;;10339602;28;20212;-75
2023/12/17 05:58:20;;;;;;;2.80;2.70;;;;;;;;;;10343156;28;20220;-74
2023/12/17 06:03:21;;;;;;;2.72;2.60;;;;;;;;;;10343809;28;23073;-74
2023/12/17 06:08:22;;;;;;;2.40;2.30;;;;;;;;;;10335521;28;20224;-74
2023/12/17 06:13:23;;;;;;;2.08;1.98;;;;;;;;;;10327186;28;20739;-74
2023/12/17 06:18:24;;;;;;;2.53;2.33;;;;;;;;;;10336415;28;20303;-75
2023/12/17 06:23:25;;;;;;;2.70;2.22;;;;;;;;;;10329254;28;20220;-74
2023/12/17 06:28:26;;;;;;;2.58;2.47;;;;;;;;;;10327068;28;20254;-76
2023/12/17 06:33:27;;;;;;;2.72;2.53;;;;;;;;;;10351190;28;20230;-73
2023/12/17 06:38:28;;;;;;;2.47;2.38;;;;;;;;;;10333840;28;20241;-77
2023/12/17 06:43:29;;;;;;;2.20;2.10;;;;;;;;;;10353348;28;20250;-76
2023/12/17 06:48:30;;;;;;;2.20;2.00;;;;;;;;;;10333430;28;20231;-76
2023/12/17 06:53:31;;;;;;;2.25;2.15;;;;;;;;;;10329308;28;20699;-77
2023/12/17 06:58:33;;;;;;;2.92;2.60;;;;;;;;;;10339344;28;20216;-77
2023/12/17 07:03:34;;;;;;;2.58;2.47;;;;;;;;;;10336584;28;20232;-78
2023/12/17 07:08:35;;;;;;;2.55;2.35;;;;;;;;;;10335627;28;20231;-77
2023/12/17 07:13:36;;;;;;;3.00;2.80;;;;;;;;;;10333546;28;20229;-75
2023/12/17 07:18:37;;;;;;;2.50;2.30;;;;;;;;;;10317699;28;20227;-74
2023/12/17 07:23:38;;;;;;;3.10;2.90;;;;;;;;;;10328358;28;20204;-75
2023/12/17 07:28:39;;;;;;;3.22;3.00;;;;;;;;;;10327038;28;20806;-75
2023/12/17 07:33:40;;;;;;;2.83;2.72;;;;;;;;;;10304503;28;26227;-74
2023/12/17 07:38:41;;;;;;;3.10;2.90;;;;;;;;;;10315171;28;20212;-74
2023/12/17 07:43:43;;;;;;;3.63;3.42;;;;;;;;;;10319183;28;20212;-74
2023/12/17 07:48:44;;;;;;;3.33;3.13;;;;;;;;;;10328533;28;20872;-73
2023/12/17 07:53:45;;;;;;;2.92;2.67;;;;;;;;;;10338977;28;20224;-72
2023/12/17 07:58:46;;;;;;;3.58;3.35;;;;;;;;;;10334121;28;20256;-73
2023/12/17 08:03:47;;;;;;;3.50;3.28;;;;;;;;;;10332813;28;20632;-74
2023/12/17 08:08:48;;;;;;;3.70;3.40;;;;;;;;;;10334158;28;20234;-74
2023/12/17 08:13:49;;;;;;;3.50;3.20;;;;;;;;;;10337490;28;20265;-74
2023/12/17 08:18:50;;;;;;;2.72;2.63;;;;;;;;;;10337263;28;20844;-73
2023/12/17 08:23:51;;;;;;;3.08;2.88;;;;;;;;;;10331087;28;20208;-76
2023/12/17 08:28:52;;;;;;;3.33;3.00;;;;;;;;;;10344663;28;20259;-75
2023/12/17 08:33:53;;;;;;;3.53;3.22;;;;;;;;;;10342990;28;20613;-74
2023/12/17 08:38:54;;;;;;;2.42;2.33;;;;;;;;;;10337566;28;20216;-74
2023/12/17 08:43:55;;;;;;;3.33;3.03;;;;;;;;;;10319477;28;20322;-75
2023/12/17 08:48:56;;;;;;;3.20;3.00;;;;;;;;;;10324023;28;20231;-76
2023/12/17 08:53:57;;;;;;;3.88;3.45;;;;;;;;;;10317061;28;20219;-74
2023/12/17 08:58:58;;;;;;;3.90;3.58;;;;;;;;;;10316017;28;20223;-73
2023/12/17 09:03:59;;;;;;;3.13;2.88;;;;;;;;;;10339340;28;20212;-74
2023/12/17 09:09:00;;;;;;;3.30;3.10;;;;;;;;;;10340951;28;20223;-75
2023/12/17 09:14:01;;;;;;;9.77;3.75;;;;;;;;;;10345481;28;20295;-76
2023/12/17 09:19:02;;;;;;;6.05;3.72;;;;;;;;;;10334005;28;20230;-75
2023/12/17 09:24:04;;;;;;;6.53;4.03;;;;;;;;;;10329680;28;20216;-75
2023/12/17 09:29:05;;;;;;;4.82;4.35;;;;;;;;;;10331575;28;20270;-75
2023/12/17 09:34:07;;;;;;;4.00;3.70;;;;;;;;;;10340718;28;20318;-75
2023/12/17 09:39:08;;;;;;;8.27;4.53;;;;;;;;;;10342811;28;20220;-74
2023/12/17 09:44:09;;;;;;;4.28;3.80;;;;;;;;;;10321482;28;20306;-75
2023/12/17 09:49:10;;;;;;;4.88;3.95;;;;;;;;;;10323277;28;20265;-74
2023/12/17 09:54:11;;;;;;;3.58;3.40;;;;;;;;;;10321792;28;20994;-73
2023/12/17 09:59:12;;;;;;;4.03;3.60;;;;;;;;;;10321707;28;20216;-75
2023/12/17 10:04:13;;;;;;;3.92;3.55;;;;;;;;;;10355521;28;20293;-74
2023/12/17 10:09:15;;;;;;;4.32;3.85;;;;;;;;;;10342256;28;20234;-75
2023/12/17 10:14:28;;;;;;;3.97;3.67;;;;;;;;;;10333765;28;20478;-75
2023/12/17 10:19:29;;;;;;;3.38;3.13;;;;;;;;;;10347942;28;20212;-77
2023/12/17 10:24:37;;;;;;;3.63;3.13;;;;;;;;;;10337592;28;20215;-75
2023/12/17 10:29:38;;;;;;;3.05;2.85;;;;;;;;;;10341674;28;20224;-74
2023/12/17 10:34:41;;;;;;;3.17;2.88;;;;;;;;;;10340111;28;20746;-75
2023/12/17 10:39:42;;;;;;;3.00;2.75;;;;;;;;;;10321122;28;20730;-75
2023/12/17 10:44:44;;;;;;;2.85;2.60;;;;;;;;;;10336365;28;20690;-75
2023/12/17 10:49:46;;;;;;;2.63;2.42;;;;;;;;;;10340411;28;20277;-75
2023/12/17 10:54:47;;;;;;;2.40;2.30;;;;;;;;;;10331801;28;20711;-75
2023/12/17 10:59:49;;;;;;;2.45;2.35;;;;;;;;;;10343926;28;20235;-75
2023/12/17 11:04:50;;;;;;;2.70;2.50;;;;;;;;;;10340184;28;20719;-77
2023/12/17 11:09:51;;;;;;;2.88;2.63;;;;;;;;;;10341514;28;20605;-76
2023/12/17 11:14:52;;;;;;;2.60;2.50;;;;;;;;;;10339137;28;20215;-76
2023/12/17 11:19:53;;;;;;;2.83;2.63;;;;;;;;;;10345123;28;20222;-76
2023/12/17 11:24:55;;;;;;;2.75;2.55;;;;;;;;;;10365820;28;20223;-75
2023/12/17 11:29:56;;;;;;;2.47;2.28;;;;;;;;;;10348797;28;20338;-77
2023/12/17 11:34:58;;;;;;;2.50;2.40;;;;;;;;;;10346337;28;20214;-75
2023/12/17 11:39:59;;;;;;;2.38;2.28;;;;;;;;;;10350508;28;20285;-76
2023/12/17 11:45:00;;;;;;;2.83;2.72;;;;;;;;;;10344473;28;20258;-75
2023/12/17 11:50:02;;;;;;;2.35;2.15;;;;;;;;;;10343935;28;20254;-76
2023/12/17 11:55:03;;;;;;;3.28;3.08;;;;;;;;;;10352439;28;20267;-77
2023/12/17 12:00:11;;;;;;;2.75;2.47;;;;;;;;;;10336335;28;20726;-76
2023/12/17 12:05:15;;;;;;;2.22;2.13;;;;;;;;;;10345854;28;20212;-75
2023/12/17 12:10:16;;;;;;;3.03;2.40;;;;;;;;;;10348934;28;20220;-75
2023/12/17 12:15:18;;;;;;;2.50;2.40;;;;;;;;;;10343796;28;20208;-76
2023/12/17 12:20:33;;;;;;;2.40;2.30;;;;;;;;;;10348309;28;20219;-75
2023/12/17 12:25:34;;;;;;;2.83;2.63;;;;;;;;;;10344910;28;20220;-75
2023/12/17 12:30:35;;;;;;;1.92;1.92;;;;;;;;;;10337781;28;20228;-76
2023/12/17 12:35:37;;;;;;;3.15;2.10;;;;;;;;;;10337956;28;20760;-77
2023/12/17 12:40:39;;;;;;;4.00;2.63;;;;;;;;;;10326777;28;20266;-75
2023/12/17 12:45:41;;;;;;;3.00;2.33;;;;;;;;;;10335491;28;20250;-76
2023/12/17 12:50:42;;;;;;;2.42;1.83;;;;;;;;;;10340050;28;20220;-76
2023/12/17 12:55:43;;;;;;;2.70;2.50;;;;;;;;;;10344312;28;20243;-79
2023/12/17 13:00:48;;;;;;;3.05;2.30;;;;;;;;;;10336006;28;20272;-76
2023/12/17 13:05:49;;;;;;;1.70;1.70;;;;;;;;;;10344689;28;20302;-75
2023/12/17 13:10:52;;;;;;;2.08;1.83;;;;;;;;;;10319941;28;20227;-76
2023/12/17 13:15:53;;;;;;;2.65;2.10;;;;;;;;;;10336524;28;20208;-76
2023/12/17 13:20:56;;;;;;;2.47;2.35;;;;;;;;;;10317125;28;20208;-77
2023/12/17 13:25:57;;;;;;;2.90;2.70;;;;;;;;;;10332438;28;20849;-75
2023/12/17 13:31:03;;;;;;;2.90;2.70;;;;;;;;;;10329184;28;20216;-75
2023/12/17 13:36:05;;;;;;;3.85;2.70;;;;;;;;;;10336398;28;20635;-76
2023/12/17 13:41:06;;;;;;;3.55;2.88;;;;;;;;;;10335876;28;20222;-75
2023/12/17 13:46:07;;;;;;;2.90;2.63;;;;;;;;;;10341189;28;20261;-76
2023/12/17 13:51:08;;;;;;;2.63;2.42;;;;;;;;;;10324651;28;20232;-76
2023/12/17 13:56:09;;;;;;;2.78;2.10;;;;;;;;;;10329175;28;20307;-77
2023/12/17 14:01:11;;;;;;;2.63;2.33;;;;;;;;;;10319921;28;20669;-76
2023/12/17 14:06:14;;;;;;;2.03;1.92;;;;;;;;;;10331440;28;20250;-76
2023/12/17 14:11:16;;;;;;;1.85;1.75;;;;;;;;;;10338844;28;20588;-75
2023/12/17 14:16:22;;;;;;;3.60;2.22;;;;;;;;;;10311289;28;20235;-74
2023/12/17 14:21:23;;;;;;;3.22;2.17;;;;;;;;;;10322495;28;20242;-74
2023/12/17 14:26:24;;;;;;;2.03;1.92;;;;;;;;;;10303237;28;20555;-74
2023/12/17 14:31:31;;;;;;;2.60;2.05;;;;;;;;;;10323653;28;20216;-75
2023/12/17 14:36:35;;;;;;;3.20;2.90;;;;;;;;;;10321629;28;20306;-75
2023/12/17 14:41:36;;;;;;;2.70;2.58;;;;;;;;;;10311601;28;20223;-76
2023/12/17 14:46:38;;;;;;;3.25;3.00;;;;;;;;;;10308491;28;20234;-75
2023/12/17 14:51:39;;;;;;;4.47;3.83;;;;;;;;;;10307572;28;20208;-73
2023/12/17 14:56:40;;;;;;;4.53;3.97;;;;;;;;;;10321840;28;20215;-74
2023/12/17 15:01:41;;;;;;;2.78;2.58;;;;;;;;;;10344033;28;20252;-73
2023/12/17 15:06:42;;;;;;;5.13;3.75;;;;;;;;;;10334388;28;20222;-73
2023/12/17 15:11:43;;;;;;;4.20;3.90;;;;;;;;;;10340163;28;20214;-74
2023/12/17 15:16:44;;;;;;;3.17;2.88;;;;;;;;;;10345148;28;20239;-75
2023/12/17 15:21:45;;;;;;;4.25;3.83;;;;;;;;;;10341493;28;20596;-73
2023/12/17 15:26:46;;;;;;;23.23;13.23;;;;;;;;;;10338603;28;20703;-73
2023/12/17 15:31:47;;;;;;;12.23;7.35;;;;;;;;;;10345814;28;20219;-72
2023/12/17 15:36:48;;;;;;;29.67;16.33;;;;;;;;;;10331042;28;20788;-74
2023/12/17 15:41:49;;;;;;;49.47;24.50;;;;;;;;;;10320559;28;20200;-73
2023/12/17 15:46:50;;;;;;;16.52;11.40;;;;;;;;;;10340082;28;20220;-72
2023/12/17 15:51:51;;;;;;;13.43;8.95;;;;;;;;;;10335211;28;20216;-74
2023/12/17 15:56:52;;;;;;;7.57;6.88;;;;;;;;;;10337288;28;20220;-73
2023/12/17 16:01:53;;;;;;;24.65;15.68;;;;;;;;;;10344833;28;20761;-74
2023/12/17 16:06:54;;;;;;;9.20;6.72;;;;;;;;;;10328835;28;20273;-74
2023/12/17 16:11:55;;;;;;;9.70;6.80;;;;;;;;;;10332708;28;20208;-74
2023/12/17 16:16:57;;;;;;;5.30;4.80;;;;;;;;;;10343686;28;20211;-74
2023/12/17 16:21:58;;;;;;;5.47;4.93;;;;;;;;;;10336384;28;20602;-74
2023/12/17 16:26:59;;;;;;;7.45;5.38;;;;;;;;;;10337773;28;20226;-74
2023/12/17 16:32:00;;;;;;;5.57;4.45;;;;;;;;;;10322929;28;20208;-74
2023/12/17 16:37:03;;;;;;;4.95;4.22;;;;;;;;;;10326025;28;20216;-72
2023/12/17 16:42:04;;;;;;;5.72;4.78;;;;;;;;;;10331070;28;20215;-73
2023/12/17 16:47:05;;;;;;;5.32;3.67;;;;;;;;;;10319090;28;20216;-71
2023/12/17 16:52:06;;;;;;;5.35;4.47;;;;;;;;;;10327040;28;20219;-71
2023/12/17 16:57:07;;;;;;;6.43;4.50;;;;;;;;;;10336173;28;20285;-71
2023/12/17 17:02:08;;;;;;;4.25;3.88;;;;;;;;;;10340410;28;20681;-72
2023/12/17 17:07:11;;;;;;;5.40;4.90;;;;;;;;;;10338337;28;20247;-73
2023/12/17 17:12:13;;;;;;;5.13;4.55;;;;;;;;;;10311601;28;20213;-71
2023/12/17 17:17:14;;;;;;;3.92;3.67;;;;;;;;;;10352093;28;20707;-71
2023/12/17 17:22:15;;;;;;;3.60;3.30;;;;;;;;;;10327847;28;20783;-73
2023/12/17 17:27:16;;;;;;;4.30;2.80;;;;;;;;;;10325359;28;20274;-73
2023/12/17 17:32:16;;;;;;;3.17;2.88;;;;;;;;;;10314287;28;20250;-73
2023/12/17 17:37:18;;;;;;;3.28;2.97;;;;;;;;;;10326569;28;20928;-73
2023/12/17 17:42:19;;;;;;;3.05;2.80;;;;;;;;;;10311848;28;20322;-71
2023/12/17 17:47:20;;;;;;;3.40;3.15;;;;;;;;;;10312916;28;20819;-73
2023/12/17 17:52:22;;;;;;;3.55;2.83;;;;;;;;;;10324151;28;20215;-73
2023/12/17 17:57:23;;;;;;;1.80;1.70;;;;;;;;;;10317603;28;20216;-72
2023/12/17 18:02:24;;;;;;;2.03;1.80;;;;;;;;;;10336706;28;20212;-73
2023/12/17 18:07:26;;;;;;;1.95;1.83;;;;;;;;;;10326540;28;20223;-74
2023/12/17 18:12:27;;;;;;;2.90;2.33;;;;;;;;;;10324507;28;20247;-73
2023/12/17 18:17:28;;;;;;;2.42;1.70;;;;;;;;;;10322157;28;20255;-74
2023/12/17 18:22:29;;;;;;;2.63;2.10;;;;;;;;;;10332531;28;20219;-74
2023/12/17 18:27:30;;;;;;;1.63;1.63;;;;;;;;;;10332141;28;20219;-74
2023/12/17 18:32:31;;;;;;;2.42;2.22;;;;;;;;;;10316995;28;20310;-74
2023/12/17 18:37:32;;;;;;;1.70;1.70;;;;;;;;;;10318029;28;21467;-73
2023/12/17 18:42:38;;;;;;;3.47;1.98;;;;;;;;;;10334891;28;20273;-73
2023/12/17 18:47:39;;;;;;;1.95;1.85;;;;;;;;;;10324181;28;20232;-73
2023/12/17 18:52:40;;;;;;;1.50;1.40;;;;;;;;;;10332298;28;20744;-73
2023/12/17 18:57:42;;;;;;;1.48;1.33;;;;;;;;;;10325629;28;20634;-73
2023/12/17 19:02:43;;;;;;;1.35;1.35;;;;;;;;;;10333922;28;20271;-72
2023/12/17 19:07:44;;;;;;;1.77;1.70;;;;;;;;;;10328426;28;21099;-75
2023/12/17 19:12:47;;;;;;;1.27;1.17;;;;;;;;;;10327799;28;20220;-73
2023/12/17 19:17:48;;;;;;;4.68;3.15;;;;;;;;;;10328092;28;20212;-72
2023/12/17 19:22:49;;;;;;;1.90;1.80;;;;;;;;;;10331939;28;20243;-72
2023/12/17 19:27:51;;;;;;;0.82;0.82;;;;;;;;;;10326949;28;20323;-73
2023/12/17 19:32:52;;;;;;;0.70;0.70;;;;;;;;;;10326656;28;20222;-73
2023/12/17 19:37:53;;;;;;;0.77;0.77;;;;;;;;;;10328308;28;20216;-73
2023/12/17 19:42:56;;;;;;;0.80;0.80;;;;;;;;;;10329166;28;20219;-73
2023/12/17 19:47:57;;;;;;;0.90;0.90;;;;;;;;;;10332492;28;20228;-73
2023/12/17 19:52:59;;;;;;;0.90;0.90;;;;;;;;;;10332539;28;20267;-71
2023/12/17 19:58:02;;;;;;;0.90;0.90;;;;;;;;;;10334865;28;20946;-73
2023/12/17 20:03:03;;;;;;;0.98;0.98;;;;;;;;;;10340978;28;20211;-72
2023/12/17 20:08:06;;;;;;;1.33;1.33;;;;;;;;;;10318165;28;20224;-73
2023/12/17 20:13:07;;;;;;;1.60;1.50;;;;;;;;;;10332277;28;20602;-73
2023/12/17 20:18:15;;;;;;;0.95;0.95;;;;;;;;;;10316020;28;20227;-72
2023/12/17 20:23:16;;;;;;;1.52;1.42;;;;;;;;;;10334307;28;20240;-72
2023/12/17 20:28:17;;;;;;;1.70;1.10;;;;;;;;;;10318848;28;20310;-74
2023/12/17 20:33:20;;;;;;;0.60;0.60;;;;;;;;;;10356673;28;20219;-73
2023/12/17 20:38:21;;;;;;;0.77;0.77;;;;;;;;;;10329687;28;20255;-74
2023/12/17 20:43:22;;;;;;;0.80;0.80;;;;;;;;;;10336302;28;20286;-73
2023/12/17 20:48:23;;;;;;;0.95;0.95;;;;;;;;;;10336971;28;20235;-74
2023/12/17 20:53:24;;;;;;;0.85;0.80;;;;;;;;;;10328130;28;20231;-73
2023/12/17 20:58:25;;;;;;;1.10;0.95;;;;;;;;;;10326807;28;20275;-75
2023/12/17 21:03:27;;;;;;;2.17;1.02;;;;;;;;;;10336354;28;20304;-74
2023/12/17 21:08:28;;;;;;;1.13;1.13;;;;;;;;;;10340443;28;20610;-74
2023/12/17 21:13:29;;;;;;;1.77;0.98;;;;;;;;;;10335117;28;20270;-73
2023/12/17 21:18:30;;;;;;;3.17;1.13;;;;;;;;;;10325176;28;20235;-74
2023/12/17 21:23:31;;;;;;;0.95;0.95;;;;;;;;;;10337765;28;20752;-74
2023/12/17 21:28:33;;;;;;;2.83;1.73;;;;;;;;;;10322879;28;20228;-73
2023/12/17 21:33:36;;;;;;;1.05;0.95;;;;;;;;;;10325002;28;20248;-72
2023/12/17 21:38:37;;;;;;;1.25;1.25;;;;;;;;;;10318943;28;20221;-74
2023/12/17 21:43:38;;;;;;;1.25;0.90;;;;;;;;;;10328336;28;20224;-73
2023/12/17 21:48:39;;;;;;;1.20;1.10;;;;;;;;;;10333494;28;20243;-73
2023/12/17 21:53:40;;;;;;;1.30;1.15;;;;;;;;;;10344035;28;20223;-73
2023/12/17 21:58:41;;;;;;;1.95;1.23;;;;;;;;;;10313542;28;20216;-73
2023/12/17 22:03:42;;;;;;;1.33;1.15;;;;;;;;;;10340578;28;20798;-74
2023/12/17 22:08:43;;;;;;;2.22;1.15;;;;;;;;;;10335536;28;20251;-74
2023/12/17 22:13:45;;;;;;;1.20;1.20;;;;;;;;;;10320632;28;20378;-73
2023/12/17 22:18:46;;;;;;;0.95;0.95;;;;;;;;;;10341919;28;20220;-74
2023/12/17 22:23:47;;;;;;;1.10;1.10;;;;;;;;;;10322170;28;20219;-76
2023/12/17 22:28:48;;;;;;;1.27;1.27;;;;;;;;;;10339196;28;20417;-72
2023/12/17 22:33:49;;;;;;;1.27;1.20;;;;;;;;;;10340672;28;20226;-74
2023/12/17 22:38:50;;;;;;;1.50;1.40;;;;;;;;;;10344816;28;20207;-75
2023/12/17 22:43:51;;;;;;;1.27;1.25;;;;;;;;;;10335356;28;20270;-73
2023/12/17 22:48:53;;;;;;;1.60;1.50;;;;;;;;;;10340295;28;20239;-73
2023/12/17 22:53:54;;;;;;;1.70;1.60;;;;;;;;;;10339365;28;20220;-74
2023/12/17 22:58:55;;;;;;;2.35;1.42;;;;;;;;;;10337392;28;20278;-73
2023/12/17 23:03:56;;;;;;;1.20;1.15;;;;;;;;;;10334782;28;20281;-73
2023/12/17 23:08:57;;;;;;;0.88;0.88;;;;;;;;;;10341040;28;20219;-72
2023/12/17 23:13:59;;;;;;;0.82;0.82;;;;;;;;;;10342453;28;20227;-73
2023/12/17 23:19:00;;;;;;;1.02;1.02;;;;;;;;;;10348217;28;20295;-72
2023/12/17 23:24:01;;;;;;;1.60;1.50;;;;;;;;;;10344287;28;20923;-74
2023/12/17 23:29:02;;;;;;;1.40;1.30;;;;;;;;;;10347074;28;20259;-74
2023/12/17 23:34:03;;;;;;;1.38;1.27;;;;;;;;;;10348635;28;20806;-73
2023/12/17 23:39:04;;;;;;;1.20;1.20;;;;;;;;;;10344999;28;20224;-73
2023/12/17 23:44:05;;;;;;;1.00;1.00;;;;;;;;;;10344877;28;20228;-73
2023/12/17 23:49:06;;;;;;;1.05;1.05;;;;;;;;;;10347361;28;20310;-73
2023/12/17 23:54:07;;;;;;;1.20;1.10;;;;;;;;;;10343833;28;20606;-73
2023/12/17 23:59:08;;;;;;;1.10;1.10;;;;;;;;;;10342522;28;20219;-73
